Flight Track Log - Related Links

Times and Time Zones

All times are in EDT time to prevent confusion due to time zone crossing. See the RPA3436 flight status page for this flight to view local times or setup timezone preferences in your user account.

Time Position Orientation Groundspeed Altitude Reporting Facility
EDT Latitude Longitude Course Direction KTS MPH feet Rate Location/Type
Sat 11:39:46 AM 38.9083 -77.0883 83° East 192 221 2,300  Level Washington Center
Sat 11:40:48 AM 38.9597 -77.1481 318° Northwest 246 283 4,800 2,557 Climbing Washington Center
Sat 11:41:00 AM 39.0025 -76.5950 57° Northeast  Level FlightAware Approximate
Sat 11:41:48 AM 39.0258 -77.1842 337° Northwest 250 288 7,500  Level Washington Center
Sat 11:42:00 AM 39.0458 -76.4855 63° Northeast  Level FlightAware Approximate
Sat 11:42:47 AM 39.0603 -77.0886 65° Northeast 193 222 10,000  Level Washington Center
Sat 11:43:00 AM 39.0909 -76.3768 61° Northeast  Level FlightAware Approximate
Sat 11:43:47 AM 39.0722 -76.9658 83° East 250 288 11,800  Level Washington Center
Sat 11:44:00 AM 39.1186 -76.2627 57° Northeast  Level FlightAware Approximate
Sat 11:44:47 AM 39.0883 -76.8350 81° East 315 362 14,400  Level Washington Center
Sat 11:45:00 AM 39.1561 -76.1559 83° East  Level FlightAware Approximate
Sat 11:45:48 AM 39.1022 -76.6936 83° East 365 420 16,200  Level Washington Center
Sat 11:46:48 AM 39.1158 -76.5414 83° East 409 471 18,400 2,085 Climbing Washington Center
Sat 11:47:46 AM 39.1339 -76.3864 81° East 425 489 20,300 1,815 Climbing Washington Center
Sat 11:48:47 AM 39.1514 -76.2233 82° East 443 510 22,000 1,180 Climbing Washington Center
Sat 11:49:48 AM 39.1708 -76.0736 80° East 455 524 22,700 1,289 Climbing Washington Center
Sat 11:50:48 AM 39.1964 -75.8994 79° East 472 543 24,600 1,576 Climbing Washington Center
Sat 11:51:46 AM 39.2800 -75.7606 52° Northeast 467 537 25,800 1,220 Climbing Washington Center
Sat 11:52:46 AM 39.3803 -75.6344 44° Northeast 480 552 27,000 595 Climbing Washington Center
Sat 11:53:47 AM 39.4822 -75.5081 44° Northeast 491 565 27,000  Level Washington Center
Sat 11:54:48 AM 39.5842 -75.3733 46° Northeast 503 579 27,000  Level Washington Center
Sat 11:55:49 AM 39.6817 -75.2436 46° Northeast 509 586 27,000  Level Washington Center
Sat 11:56:46 AM 39.7792 -75.1000 49° Northeast 515 593 27,000  Level Washington Center
Sat 11:57:47 AM 39.8847 -74.9506 47° Northeast 520 598 27,000  Level Washington Center
Sat 11:59:02 AM 40.0058 -74.7789 47° Northeast 518 596 27,000  Level New York Center
Sat 12:00:03 PM 40.0956 -74.6483 48° Northeast 518 596 27,000  Level New York Center
Sat 12:01:04 PM 40.1939 -74.5100 47° Northeast 523 602 27,000  Level New York Center
Sat 12:03:24 PM 40.4586 -74.2183 40° Northeast 512 589 27,000  Level Boston Center
Sat 12:04:24 PM 40.5731 -74.0986 38° Northeast 517 595 27,000 -700 Level Boston Center
Sat 12:05:24 PM 40.7000 -73.9650 39° Northeast 523 602 25,600 -1,500 Descending Boston Center
Sat 12:06:24 PM 40.8056 -73.8494 40° Northeast 518 596 24,000 -1,050 Descending Boston Center
Sat 12:07:24 PM 40.9114 -73.7200 43° Northeast 508 585 23,500 -500 Descending Boston Center
Sat 12:08:24 PM 41.0189 -73.6064 39° Northeast 502 578 23,000 -400 Descending Boston Center
Sat 12:09:24 PM 41.1172 -73.5753 13° North 465 535 22,700 -950 Descending Boston Center
Sat 12:10:24 PM 41.2506 -73.5611 North 429 494 21,100 -1,550 Descending Boston Center
Sat 12:11:24 PM 41.3675 -73.5603 360° North 429 494 19,600 -1,050 Descending Boston Center
Sat 12:12:24 PM 41.4925 -73.5514 North 417 480 19,000 -300 Descending Boston Center
Sat 12:13:24 PM 41.6114 -73.5478 North 417 480 19,000 -1,000 Level Boston Center
Sat 12:14:24 PM 41.7261 -73.5444 North 417 480 17,000 -1,500 Descending Boston Center
Sat 12:15:24 PM 41.8367 -73.5381 North 412 474 16,000 -1,200 Descending Boston Center
Sat 12:16:24 PM 41.9386 -73.5342 North 400 460 14,600 -2,250 Descending Boston Center
Sat 12:17:24 PM 42.0597 -73.5278 North 400 460 11,500 -2,097 Descending Boston Center
Sat 12:18:07 PM 42.1306 -73.5206 North 381 438 11,000 -288 Descending Boston Center
Sat 12:19:08 PM 42.2392 -73.5058 North 362 417 11,000 -438 Level Boston Center
Sat 12:20:24 PM 42.3389 -73.5242 352° North 337 388 10,000 -1,279 Descending Boston Center
Sat 12:21:24 PM 42.4325 -73.5428 352° North 304 350 8,100 -1,875 Descending Boston Center
Sat 12:22:16 PM 42.4969 -73.5608 348° North 294 338 6,500 -1,646 Descending Boston Center
Sat 12:23:17 PM 42.5842 -73.5850 348° North 290 334 5,000 -992 Descending Boston Center
Sat 12:24:23 PM 42.6611 -73.6089 347° North 261 300 4,400 -472 Descending Boston Center
Sat 12:25:24 PM 42.7275 -73.6442 339° North 253 291 4,000 -517 Descending Boston Center
Sat 12:26:19 PM 42.7814 -73.6792 335° Northwest 234 269 3,400 -836 Descending Boston Center
Sat 12:27:26 PM 42.8056 -73.7392 299° West 153 176 2,300 -1,039 Descending Boston Center
Sat 12:28:26 PM 42.7906 -73.7897 248° West 124 143 1,200 -942 Descending Boston Center
Sat 12:29:27 PM 42.7611 -73.8089 206° Southwest 125 144 400 -787 Descending Boston Center

Login

Don't have an account? Register now (free) for customized features, flight alerts, and more!